sensor_id;sensor_type;location;lat;lon;timestamp;P1;durP1;ratioP1;P2;durP2;ratioP2
9720;SDS011;4899;42.644;23.366;2023-08-24T00:00:58;17.83;;;13.30;;
9720;SDS011;4899;42.644;23.366;2023-08-24T00:03:29;12.73;;;11.43;;
9720;SDS011;4899;42.644;23.366;2023-08-24T00:05:54;13.57;;;12.37;;
9720;SDS011;4899;42.644;23.366;2023-08-24T00:08:20;12.70;;;11.50;;
9720;SDS011;4899;42.644;23.366;2023-08-24T00:10:45;13.73;;;11.33;;
9720;SDS011;4899;42.644;23.366;2023-08-24T00:13:12;11.57;;;10.60;;
9720;SDS011;4899;42.644;23.366;2023-08-24T00:15:38;12.13;;;10.93;;
9720;SDS011;4899;42.644;23.366;2023-08-24T00:18:04;13.80;;;11.17;;
9720;SDS011;4899;42.644;23.366;2023-08-24T00:20:30;12.90;;;11.73;;
9720;SDS011;4899;42.644;23.366;2023-08-24T00:22:57;11.07;;;10.27;;
9720;SDS011;4899;42.644;23.366;2023-08-24T00:25:23;11.20;;;10.40;;
9720;SDS011;4899;42.644;23.366;2023-08-24T00:27:48;11.63;;;10.67;;
9720;SDS011;4899;42.644;23.366;2023-08-24T00:30:14;12.27;;;11.17;;
9720;SDS011;4899;42.644;23.366;2023-08-24T00:32:40;11.90;;;10.80;;
9720;SDS011;4899;42.644;23.366;2023-08-24T00:35:08;11.37;;;10.33;;
9720;SDS011;4899;42.644;23.366;2023-08-24T00:37:35;12.10;;;11.03;;
9720;SDS011;4899;42.644;23.366;2023-08-24T00:40:02;11.70;;;10.77;;
9720;SDS011;4899;42.644;23.366;2023-08-24T00:42:36;11.70;;;10.70;;
9720;SDS011;4899;42.644;23.366;2023-08-24T00:45:03;11.73;;;10.80;;
9720;SDS011;4899;42.644;23.366;2023-08-24T00:47:29;12.83;;;11.83;;
9720;SDS011;4899;42.644;23.366;2023-08-24T00:49:55;12.67;;;11.60;;
9720;SDS011;4899;42.644;23.366;2023-08-24T00:52:20;11.70;;;10.83;;
9720;SDS011;4899;42.644;23.366;2023-08-24T00:54:46;12.70;;;11.40;;
9720;SDS011;4899;42.644;23.366;2023-08-24T00:57:12;13.73;;;12.43;;
9720;SDS011;4899;42.644;23.366;2023-08-24T00:59:38;12.80;;;11.53;;
9720;SDS011;4899;42.644;23.366;2023-08-24T01:02:04;13.33;;;12.23;;
9720;SDS011;4899;42.644;23.366;2023-08-24T01:04:33;13.43;;;12.23;;
9720;SDS011;4899;42.644;23.366;2023-08-24T01:06:59;13.23;;;12.00;;
9720;SDS011;4899;42.644;23.366;2023-08-24T01:09:25;13.10;;;12.00;;
9720;SDS011;4899;42.644;23.366;2023-08-24T01:17:11;12.93;;;11.87;;
9720;SDS011;4899;42.644;23.366;2023-08-24T01:19:43;13.50;;;12.27;;
9720;SDS011;4899;42.644;23.366;2023-08-24T01:24:54;13.73;;;12.57;;
9720;SDS011;4899;42.644;23.366;2023-08-24T01:27:39;12.53;;;11.53;;
9720;SDS011;4899;42.644;23.366;2023-08-24T01:30:06;13.17;;;12.17;;
9720;SDS011;4899;42.644;23.366;2023-08-24T01:32:33;12.60;;;11.60;;
9720;SDS011;4899;42.644;23.366;2023-08-24T01:35:03;12.97;;;11.80;;
9720;SDS011;4899;42.644;23.366;2023-08-24T01:37:34;12.50;;;11.50;;
9720;SDS011;4899;42.644;23.366;2023-08-24T01:40:04;11.43;;;10.53;;
9720;SDS011;4899;42.644;23.366;2023-08-24T01:42:35;11.93;;;10.97;;
9720;SDS011;4899;42.644;23.366;2023-08-24T01:45:04;12.03;;;11.03;;
9720;SDS011;4899;42.644;23.366;2023-08-24T01:47:33;12.37;;;11.43;;
9720;SDS011;4899;42.644;23.366;2023-08-24T01:50:01;12.63;;;11.73;;
9720;SDS011;4899;42.644;23.366;2023-08-24T01:52:27;12.07;;;11.00;;
9720;SDS011;4899;42.644;23.366;2023-08-24T01:54:53;11.97;;;10.97;;
9720;SDS011;4899;42.644;23.366;2023-08-24T01:57:21;12.40;;;11.40;;
9720;SDS011;4899;42.644;23.366;2023-08-24T01:59:47;11.83;;;10.87;;
9720;SDS011;4899;42.644;23.366;2023-08-24T02:02:12;11.87;;;10.73;;
9720;SDS011;4899;42.644;23.366;2023-08-24T02:04:38;11.57;;;10.67;;
9720;SDS011;4899;42.644;23.366;2023-08-24T02:07:03;12.30;;;11.30;;
9720;SDS011;4899;42.644;23.366;2023-08-24T02:09:28;12.13;;;11.13;;
9720;SDS011;4899;42.644;23.366;2023-08-24T02:11:55;12.67;;;11.50;;
9720;SDS011;4899;42.644;23.366;2023-08-24T02:14:20;12.20;;;11.20;;
9720;SDS011;4899;42.644;23.366;2023-08-24T02:16:45;12.87;;;11.87;;
9720;SDS011;4899;42.644;23.366;2023-08-24T02:19:11;12.20;;;11.30;;
9720;SDS011;4899;42.644;23.366;2023-08-24T02:21:36;12.07;;;11.07;;
9720;SDS011;4899;42.644;23.366;2023-08-24T02:24:02;15.60;;;12.03;;
9720;SDS011;4899;42.644;23.366;2023-08-24T02:26:29;13.33;;;12.10;;
9720;SDS011;4899;42.644;23.366;2023-08-24T02:28:56;12.70;;;11.47;;
9720;SDS011;4899;42.644;23.366;2023-08-24T02:31:22;13.17;;;12.00;;
9720;SDS011;4899;42.644;23.366;2023-08-24T02:33:48;13.63;;;12.43;;
9720;SDS011;4899;42.644;23.366;2023-08-24T02:36:14;14.40;;;12.87;;
9720;SDS011;4899;42.644;23.366;2023-08-24T02:38:40;13.10;;;11.90;;
9720;SDS011;4899;42.644;23.366;2023-08-24T02:41:06;13.27;;;12.17;;
9720;SDS011;4899;42.644;23.366;2023-08-24T02:43:32;12.20;;;11.07;;
9720;SDS011;4899;42.644;23.366;2023-08-24T02:46:08;12.67;;;11.47;;
9720;SDS011;4899;42.644;23.366;2023-08-24T02:48:35;12.83;;;11.73;;
9720;SDS011;4899;42.644;23.366;2023-08-24T02:51:01;12.80;;;11.70;;
9720;SDS011;4899;42.644;23.366;2023-08-24T02:53:28;13.20;;;12.07;;
9720;SDS011;4899;42.644;23.366;2023-08-24T02:55:57;13.57;;;12.47;;
9720;SDS011;4899;42.644;23.366;2023-08-24T02:58:23;13.70;;;12.50;;
9720;SDS011;4899;42.644;23.366;2023-08-24T03:00:48;13.47;;;12.27;;
9720;SDS011;4899;42.644;23.366;2023-08-24T03:03:14;13.63;;;12.50;;
9720;SDS011;4899;42.644;23.366;2023-08-24T03:05:40;14.93;;;13.50;;
9720;SDS011;4899;42.644;23.366;2023-08-24T03:08:06;13.30;;;12.10;;
9720;SDS011;4899;42.644;23.366;2023-08-24T03:10:34;13.87;;;12.77;;
9720;SDS011;4899;42.644;23.366;2023-08-24T03:13:00;13.27;;;11.97;;
9720;SDS011;4899;42.644;23.366;2023-08-24T03:15:26;14.20;;;12.80;;
9720;SDS011;4899;42.644;23.366;2023-08-24T03:17:51;14.43;;;13.13;;
9720;SDS011;4899;42.644;23.366;2023-08-24T03:20:17;13.40;;;12.23;;
9720;SDS011;4899;42.644;23.366;2023-08-24T03:22:43;12.87;;;11.83;;
9720;SDS011;4899;42.644;23.366;2023-08-24T03:25:09;13.53;;;12.17;;
9720;SDS011;4899;42.644;23.366;2023-08-24T03:27:34;13.50;;;11.50;;
9720;SDS011;4899;42.644;23.366;2023-08-24T03:30:00;13.57;;;12.27;;
9720;SDS011;4899;42.644;23.366;2023-08-24T03:32:25;13.60;;;12.43;;
9720;SDS011;4899;42.644;23.366;2023-08-24T03:34:51;13.43;;;12.17;;
9720;SDS011;4899;42.644;23.366;2023-08-24T03:37:16;13.70;;;12.50;;
9720;SDS011;4899;42.644;23.366;2023-08-24T03:39:41;13.30;;;11.93;;
9720;SDS011;4899;42.644;23.366;2023-08-24T03:42:07;14.40;;;13.03;;
9720;SDS011;4899;42.644;23.366;2023-08-24T03:44:35;14.60;;;13.33;;
9720;SDS011;4899;42.644;23.366;2023-08-24T03:47:01;15.83;;;14.43;;
9720;SDS011;4899;42.644;23.366;2023-08-24T03:49:29;14.77;;;13.67;;
9720;SDS011;4899;42.644;23.366;2023-08-24T03:51:54;15.50;;;14.23;;
9720;SDS011;4899;42.644;23.366;2023-08-24T03:54:19;15.83;;;14.43;;
9720;SDS011;4899;42.644;23.366;2023-08-24T03:56:45;16.27;;;14.97;;
9720;SDS011;4899;42.644;23.366;2023-08-24T03:59:11;15.60;;;14.27;;
9720;SDS011;4899;42.644;23.366;2023-08-24T04:01:39;16.53;;;15.00;;
9720;SDS011;4899;42.644;23.366;2023-08-24T04:04:07;17.27;;;15.63;;
9720;SDS011;4899;42.644;23.366;2023-08-24T04:06:34;17.30;;;15.90;;
9720;SDS011;4899;42.644;23.366;2023-08-24T04:08:59;17.73;;;16.07;;
9720;SDS011;4899;42.644;23.366;2023-08-24T04:11:27;16.70;;;15.00;;
9720;SDS011;4899;42.644;23.366;2023-08-24T04:13:53;16.57;;;14.83;;
9720;SDS011;4899;42.644;23.366;2023-08-24T04:16:18;16.50;;;14.90;;
9720;SDS011;4899;42.644;23.366;2023-08-24T04:18:49;17.37;;;15.87;;
9720;SDS011;4899;42.644;23.366;2023-08-24T04:21:14;17.40;;;15.70;;
9720;SDS011;4899;42.644;23.366;2023-08-24T04:23:40;16.83;;;15.47;;
9720;SDS011;4899;42.644;23.366;2023-08-24T04:26:10;16.97;;;15.47;;
9720;SDS011;4899;42.644;23.366;2023-08-24T04:28:38;18.33;;;16.60;;
9720;SDS011;4899;42.644;23.366;2023-08-24T04:31:03;17.90;;;16.30;;
9720;SDS011;4899;42.644;23.366;2023-08-24T04:33:29;17.13;;;15.40;;
9720;SDS011;4899;42.644;23.366;2023-08-24T04:35:55;19.40;;;17.20;;
9720;SDS011;4899;42.644;23.366;2023-08-24T04:38:20;17.83;;;16.33;;
9720;SDS011;4899;42.644;23.366;2023-08-24T04:43:13;18.97;;;17.10;;
9720;SDS011;4899;42.644;23.366;2023-08-24T04:45:38;18.60;;;16.70;;
9720;SDS011;4899;42.644;23.366;2023-08-24T04:48:04;18.80;;;16.90;;
9720;SDS011;4899;42.644;23.366;2023-08-24T04:50:29;17.70;;;15.97;;
9720;SDS011;4899;42.644;23.366;2023-08-24T04:52:55;18.77;;;16.80;;
9720;SDS011;4899;42.644;23.366;2023-08-24T04:55:20;16.30;;;14.90;;
9720;SDS011;4899;42.644;23.366;2023-08-24T04:57:45;16.60;;;15.00;;
9720;SDS011;4899;42.644;23.366;2023-08-24T05:00:11;18.33;;;16.57;;
9720;SDS011;4899;42.644;23.366;2023-08-24T05:02:41;17.17;;;15.57;;
9720;SDS011;4899;42.644;23.366;2023-08-24T05:05:07;16.50;;;15.07;;
9720;SDS011;4899;42.644;23.366;2023-08-24T05:07:35;18.83;;;16.70;;
9720;SDS011;4899;42.644;23.366;2023-08-24T05:10:00;19.43;;;17.00;;
9720;SDS011;4899;42.644;23.366;2023-08-24T05:12:26;17.63;;;16.13;;
9720;SDS011;4899;42.644;23.366;2023-08-24T05:14:51;19.00;;;17.20;;
9720;SDS011;4899;42.644;23.366;2023-08-24T05:17:16;18.70;;;17.10;;
9720;SDS011;4899;42.644;23.366;2023-08-24T05:19:42;19.53;;;17.83;;
9720;SDS011;4899;42.644;23.366;2023-08-24T05:22:07;17.63;;;15.90;;
9720;SDS011;4899;42.644;23.366;2023-08-24T05:24:32;17.40;;;15.33;;
9720;SDS011;4899;42.644;23.366;2023-08-24T05:26:58;24.70;;;22.57;;
9720;SDS011;4899;42.644;23.366;2023-08-24T05:29:24;17.23;;;15.63;;
9720;SDS011;4899;42.644;23.366;2023-08-24T05:31:49;17.73;;;15.53;;
9720;SDS011;4899;42.644;23.366;2023-08-24T05:34:14;27.33;;;24.73;;
9720;SDS011;4899;42.644;23.366;2023-08-24T05:36:43;25.93;;;23.67;;
9720;SDS011;4899;42.644;23.366;2023-08-24T05:39:08;34.30;;;30.87;;
9720;SDS011;4899;42.644;23.366;2023-08-24T05:41:35;38.67;;;34.97;;
9720;SDS011;4899;42.644;23.366;2023-08-24T05:44:02;33.37;;;30.10;;
9720;SDS011;4899;42.644;23.366;2023-08-24T05:46:27;23.33;;;21.23;;
9720;SDS011;4899;42.644;23.366;2023-08-24T05:48:53;21.10;;;19.13;;
9720;SDS011;4899;42.644;23.366;2023-08-24T05:51:18;21.00;;;18.70;;
9720;SDS011;4899;42.644;23.366;2023-08-24T05:53:44;28.00;;;19.30;;
9720;SDS011;4899;42.644;23.366;2023-08-24T05:56:14;22.23;;;18.87;;
9720;SDS011;4899;42.644;23.366;2023-08-24T05:58:40;27.53;;;18.67;;
9720;SDS011;4899;42.644;23.366;2023-08-24T06:01:05;24.03;;;18.57;;
9720;SDS011;4899;42.644;23.366;2023-08-24T06:03:30;24.33;;;18.70;;
9720;SDS011;4899;42.644;23.366;2023-08-24T06:06:03;18.67;;;16.87;;
9720;SDS011;4899;42.644;23.366;2023-08-24T06:08:29;17.93;;;16.13;;
9720;SDS011;4899;42.644;23.366;2023-08-24T06:10:57;17.63;;;15.77;;
9720;SDS011;4899;42.644;23.366;2023-08-24T06:13:23;17.80;;;16.10;;
9720;SDS011;4899;42.644;23.366;2023-08-24T06:15:49;19.30;;;17.60;;
9720;SDS011;4899;42.644;23.366;2023-08-24T06:18:14;21.37;;;18.60;;
9720;SDS011;4899;42.644;23.366;2023-08-24T06:20:40;18.97;;;17.13;;
9720;SDS011;4899;42.644;23.366;2023-08-24T06:23:06;20.17;;;18.47;;
9720;SDS011;4899;42.644;23.366;2023-08-24T06:25:37;20.50;;;18.53;;
9720;SDS011;4899;42.644;23.366;2023-08-24T06:28:03;20.97;;;19.10;;
9720;SDS011;4899;42.644;23.366;2023-08-24T06:30:29;19.47;;;17.67;;
9720;SDS011;4899;42.644;23.366;2023-08-24T06:32:58;21.70;;;19.63;;
9720;SDS011;4899;42.644;23.366;2023-08-24T06:35:28;22.70;;;19.00;;
9720;SDS011;4899;42.644;23.366;2023-08-24T06:37:54;21.00;;;19.07;;
9720;SDS011;4899;42.644;23.366;2023-08-24T06:40:19;25.17;;;19.80;;
9720;SDS011;4899;42.644;23.366;2023-08-24T06:42:45;21.60;;;19.37;;
9720;SDS011;4899;42.644;23.366;2023-08-24T06:45:10;20.17;;;18.07;;
9720;SDS011;4899;42.644;23.366;2023-08-24T06:47:36;20.87;;;18.77;;
9720;SDS011;4899;42.644;23.366;2023-08-24T06:50:02;20.87;;;18.43;;
9720;SDS011;4899;42.644;23.366;2023-08-24T06:52:27;22.23;;;18.10;;
9720;SDS011;4899;42.644;23.366;2023-08-24T06:54:52;21.53;;;19.23;;
9720;SDS011;4899;42.644;23.366;2023-08-24T06:57:21;21.37;;;19.30;;
9720;SDS011;4899;42.644;23.366;2023-08-24T06:59:47;21.60;;;19.53;;
9720;SDS011;4899;42.644;23.366;2023-08-24T07:02:12;25.07;;;20.17;;
9720;SDS011;4899;42.644;23.366;2023-08-24T07:04:38;22.77;;;20.33;;
9720;SDS011;4899;42.644;23.366;2023-08-24T07:07:08;21.60;;;19.27;;
9720;SDS011;4899;42.644;23.366;2023-08-24T07:09:33;20.87;;;18.60;;
9720;SDS011;4899;42.644;23.366;2023-08-24T07:11:59;21.30;;;19.23;;
9720;SDS011;4899;42.644;23.366;2023-08-24T07:14:25;21.67;;;19.57;;
9720;SDS011;4899;42.644;23.366;2023-08-24T07:16:53;20.73;;;18.57;;
9720;SDS011;4899;42.644;23.366;2023-08-24T07:19:18;20.53;;;17.87;;
9720;SDS011;4899;42.644;23.366;2023-08-24T07:21:44;19.20;;;17.30;;
9720;SDS011;4899;42.644;23.366;2023-08-24T07:24:09;18.57;;;16.87;;
9720;SDS011;4899;42.644;23.366;2023-08-24T07:26:40;17.93;;;16.33;;
9720;SDS011;4899;42.644;23.366;2023-08-24T07:29:07;17.97;;;16.00;;
9720;SDS011;4899;42.644;23.366;2023-08-24T07:31:33;17.23;;;15.20;;
9720;SDS011;4899;42.644;23.366;2023-08-24T07:33:58;17.27;;;15.57;;
9720;SDS011;4899;42.644;23.366;2023-08-24T07:36:23;18.63;;;15.83;;
9720;SDS011;4899;42.644;23.366;2023-08-24T07:38:49;16.37;;;14.93;;
9720;SDS011;4899;42.644;23.366;2023-08-24T07:41:14;18.80;;;15.13;;
9720;SDS011;4899;42.644;23.366;2023-08-24T07:43:42;16.93;;;15.33;;
9720;SDS011;4899;42.644;23.366;2023-08-24T07:46:08;16.50;;;14.70;;
9720;SDS011;4899;42.644;23.366;2023-08-24T07:48:33;18.03;;;15.47;;
9720;SDS011;4899;42.644;23.366;2023-08-24T07:50:58;18.30;;;15.60;;
9720;SDS011;4899;42.644;23.366;2023-08-24T07:53:24;18.20;;;16.33;;
9720;SDS011;4899;42.644;23.366;2023-08-24T07:55:49;15.20;;;13.70;;
9720;SDS011;4899;42.644;23.366;2023-08-24T07:58:15;16.67;;;15.10;;
9720;SDS011;4899;42.644;23.366;2023-08-24T08:00:40;16.80;;;15.18;;
9720;SDS011;4899;42.644;23.366;2023-08-24T08:03:05;16.37;;;14.90;;
9720;SDS011;4899;42.644;23.366;2023-08-24T08:05:31;16.27;;;14.65;;
9720;SDS011;4899;42.644;23.366;2023-08-24T08:07:57;17.77;;;16.27;;
9720;SDS011;4899;42.644;23.366;2023-08-24T08:10:22;18.85;;;15.57;;
9720;SDS011;4899;42.644;23.366;2023-08-24T08:12:47;16.50;;;15.13;;
9720;SDS011;4899;42.644;23.366;2023-08-24T08:15:18;15.77;;;14.38;;
9720;SDS011;4899;42.644;23.366;2023-08-24T08:17:44;14.52;;;13.13;;
9720;SDS011;4899;42.644;23.366;2023-08-24T08:20:09;14.85;;;13.32;;
9720;SDS011;4899;42.644;23.366;2023-08-24T08:22:36;14.95;;;13.23;;
9720;SDS011;4899;42.644;23.366;2023-08-24T08:25:04;14.07;;;12.50;;
9720;SDS011;4899;42.644;23.366;2023-08-24T08:27:30;14.52;;;13.05;;
9720;SDS011;4899;42.644;23.366;2023-08-24T08:29:56;14.20;;;12.85;;
9720;SDS011;4899;42.644;23.366;2023-08-24T08:32:21;15.35;;;13.95;;
9720;SDS011;4899;42.644;23.366;2023-08-24T08:34:47;13.93;;;12.57;;
9720;SDS011;4899;42.644;23.366;2023-08-24T08:37:12;11.68;;;10.68;;
9720;SDS011;4899;42.644;23.366;2023-08-24T08:39:37;14.07;;;12.68;;
9720;SDS011;4899;42.644;23.366;2023-08-24T08:42:03;13.82;;;11.93;;
9720;SDS011;4899;42.644;23.366;2023-08-24T08:44:30;13.02;;;11.82;;
9720;SDS011;4899;42.644;23.366;2023-08-24T08:46:57;12.40;;;11.40;;
9720;SDS011;4899;42.644;23.366;2023-08-24T08:49:22;12.98;;;11.68;;
9720;SDS011;4899;42.644;23.366;2023-08-24T08:51:50;12.10;;;11.10;;
9720;SDS011;4899;42.644;23.366;2023-08-24T08:54:17;15.77;;;12.10;;
9720;SDS011;4899;42.644;23.366;2023-08-24T08:56:42;12.90;;;11.75;;
9720;SDS011;4899;42.644;23.366;2023-08-24T08:59:08;12.18;;;11.18;;
9720;SDS011;4899;42.644;23.366;2023-08-24T09:01:34;12.05;;;10.82;;
9720;SDS011;4899;42.644;23.366;2023-08-24T09:04:03;12.25;;;11.25;;
9720;SDS011;4899;42.644;23.366;2023-08-24T09:06:31;12.60;;;11.50;;
9720;SDS011;4899;42.644;23.366;2023-08-24T09:08:56;12.90;;;11.70;;
9720;SDS011;4899;42.644;23.366;2023-08-24T09:11:22;13.02;;;12.02;;
9720;SDS011;4899;42.644;23.366;2023-08-24T09:13:51;13.45;;;12.25;;
9720;SDS011;4899;42.644;23.366;2023-08-24T09:16:24;12.43;;;11.40;;
9720;SDS011;4899;42.644;23.366;2023-08-24T09:18:54;13.80;;;12.60;;
9720;SDS011;4899;42.644;23.366;2023-08-24T09:21:20;13.05;;;11.98;;
9720;SDS011;4899;42.644;23.366;2023-08-24T09:23:52;13.48;;;12.43;;
9720;SDS011;4899;42.644;23.366;2023-08-24T09:29:14;14.15;;;13.00;;
9720;SDS011;4899;42.644;23.366;2023-08-24T09:31:40;13.15;;;11.98;;
9720;SDS011;4899;42.644;23.366;2023-08-24T09:34:09;12.80;;;11.85;;
9720;SDS011;4899;42.644;23.366;2023-08-24T09:36:38;12.95;;;11.95;;
9720;SDS011;4899;42.644;23.366;2023-08-24T09:39:04;12.43;;;11.48;;
9720;SDS011;4899;42.644;23.366;2023-08-24T09:41:40;13.38;;;12.20;;
9720;SDS011;4899;42.644;23.366;2023-08-24T09:44:09;13.80;;;12.60;;
9720;SDS011;4899;42.644;23.366;2023-08-24T09:46:36;14.45;;;13.13;;
9720;SDS011;4899;42.644;23.366;2023-08-24T09:49:04;13.32;;;12.30;;
9720;SDS011;4899;42.644;23.366;2023-08-24T09:51:31;13.52;;;12.27;;
9720;SDS011;4899;42.644;23.366;2023-08-24T09:53:58;13.40;;;12.40;;
9720;SDS011;4899;42.644;23.366;2023-08-24T09:56:34;15.77;;;11.88;;
9720;SDS011;4899;42.644;23.366;2023-08-24T09:59:13;13.73;;;12.48;;
9720;SDS011;4899;42.644;23.366;2023-08-24T10:01:42;12.30;;;11.23;;
9720;SDS011;4899;42.644;23.366;2023-08-24T10:04:08;10.80;;;9.77;;
9720;SDS011;4899;42.644;23.366;2023-08-24T10:06:38;11.55;;;10.52;;
9720;SDS011;4899;42.644;23.366;2023-08-24T10:09:06;12.55;;;11.27;;
9720;SDS011;4899;42.644;23.366;2023-08-24T10:11:39;10.98;;;10.13;;
9720;SDS011;4899;42.644;23.366;2023-08-24T10:16:35;12.50;;;11.20;;
9720;SDS011;4899;42.644;23.366;2023-08-24T10:19:02;11.55;;;10.57;;
9720;SDS011;4899;42.644;23.366;2023-08-24T10:21:29;11.35;;;10.23;;
9720;SDS011;4899;42.644;23.366;2023-08-24T10:23:56;10.85;;;9.95;;
9720;SDS011;4899;42.644;23.366;2023-08-24T10:26:23;11.10;;;10.18;;
9720;SDS011;4899;42.644;23.366;2023-08-24T10:28:52;10.93;;;9.98;;
9720;SDS011;4899;42.644;23.366;2023-08-24T10:31:18;11.45;;;10.23;;
9720;SDS011;4899;42.644;23.366;2023-08-24T10:33:45;11.20;;;10.23;;
9720;SDS011;4899;42.644;23.366;2023-08-24T10:36:17;12.43;;;11.40;;
9720;SDS011;4899;42.644;23.366;2023-08-24T10:38:43;11.45;;;10.48;;
9720;SDS011;4899;42.644;23.366;2023-08-24T10:41:09;12.45;;;11.20;;
9720;SDS011;4899;42.644;23.366;2023-08-24T10:43:41;13.20;;;12.00;;
9720;SDS011;4899;42.644;23.366;2023-08-24T10:46:16;12.40;;;11.38;;
9720;SDS011;4899;42.644;23.366;2023-08-24T10:53:43;10.65;;;9.88;;
9720;SDS011;4899;42.644;23.366;2023-08-24T10:56:10;10.18;;;9.38;;
9720;SDS011;4899;42.644;23.366;2023-08-24T10:58:37;10.60;;;9.75;;
9720;SDS011;4899;42.644;23.366;2023-08-24T11:01:02;11.15;;;10.15;;
9720;SDS011;4899;42.644;23.366;2023-08-24T11:03:30;11.02;;;10.13;;
9720;SDS011;4899;42.644;23.366;2023-08-24T11:09:07;11.63;;;10.73;;
9720;SDS011;4899;42.644;23.366;2023-08-24T11:11:40;12.25;;;11.10;;
9720;SDS011;4899;42.644;23.366;2023-08-24T11:14:23;12.20;;;10.93;;
9720;SDS011;4899;42.644;23.366;2023-08-24T11:16:51;12.30;;;11.30;;
9720;SDS011;4899;42.644;23.366;2023-08-24T11:19:20;13.20;;;10.93;;
9720;SDS011;4899;42.644;23.366;2023-08-24T11:21:46;12.38;;;11.35;;
9720;SDS011;4899;42.644;23.366;2023-08-24T11:24:12;12.65;;;11.35;;
9720;SDS011;4899;42.644;23.366;2023-08-24T11:26:45;12.25;;;11.02;;
9720;SDS011;4899;42.644;23.366;2023-08-24T11:29:13;12.43;;;11.23;;
9720;SDS011;4899;42.644;23.366;2023-08-24T11:31:40;12.20;;;11.18;;
9720;SDS011;4899;42.644;23.366;2023-08-24T11:34:06;13.38;;;11.73;;
9720;SDS011;4899;42.644;23.366;2023-08-24T11:36:42;17.23;;;11.95;;
9720;SDS011;4899;42.644;23.366;2023-08-24T11:39:14;12.18;;;11.13;;
9720;SDS011;4899;42.644;23.366;2023-08-24T11:41:57;14.50;;;12.70;;
9720;SDS011;4899;42.644;23.366;2023-08-24T11:44:23;13.82;;;12.52;;
9720;SDS011;4899;42.644;23.366;2023-08-24T11:46:48;14.95;;;12.85;;
9720;SDS011;4899;42.644;23.366;2023-08-24T11:49:14;12.55;;;10.93;;
9720;SDS011;4899;42.644;23.366;2023-08-24T11:51:39;12.93;;;12.02;;
9720;SDS011;4899;42.644;23.366;2023-08-24T11:54:05;14.40;;;13.05;;
9720;SDS011;4899;42.644;23.366;2023-08-24T11:56:31;13.63;;;12.35;;
9720;SDS011;4899;42.644;23.366;2023-08-24T11:58:56;12.77;;;11.88;;
9720;SDS011;4899;42.644;23.366;2023-08-24T12:01:22;12.75;;;11.65;;
9720;SDS011;4899;42.644;23.366;2023-08-24T12:03:48;13.73;;;11.45;;
9720;SDS011;4899;42.644;23.366;2023-08-24T12:06:14;13.15;;;12.05;;
9720;SDS011;4899;42.644;23.366;2023-08-24T12:08:44;14.98;;;11.88;;
9720;SDS011;4899;42.644;23.366;2023-08-24T12:11:15;13.10;;;11.85;;
9720;SDS011;4899;42.644;23.366;2023-08-24T12:13:49;12.75;;;11.50;;
9720;SDS011;4899;42.644;23.366;2023-08-24T12:16:21;15.63;;;11.48;;
9720;SDS011;4899;42.644;23.366;2023-08-24T12:18:55;13.52;;;12.27;;
9720;SDS011;4899;42.644;23.366;2023-08-24T12:21:22;13.00;;;11.77;;
9720;SDS011;4899;42.644;23.366;2023-08-24T12:26:33;18.88;;;12.00;;
9720;SDS011;4899;42.644;23.366;2023-08-24T12:29:03;13.15;;;12.00;;
9720;SDS011;4899;42.644;23.366;2023-08-24T12:31:33;13.18;;;11.45;;
9720;SDS011;4899;42.644;23.366;2023-08-24T12:34:05;11.88;;;10.88;;
9720;SDS011;4899;42.644;23.366;2023-08-24T12:36:38;11.32;;;10.40;;
9720;SDS011;4899;42.644;23.366;2023-08-24T12:39:06;11.10;;;10.10;;
9720;SDS011;4899;42.644;23.366;2023-08-24T12:41:36;11.95;;;11.02;;
9720;SDS011;4899;42.644;23.366;2023-08-24T12:44:02;11.18;;;10.02;;
9720;SDS011;4899;42.644;23.366;2023-08-24T12:46:39;12.30;;;10.93;;
9720;SDS011;4899;42.644;23.366;2023-08-24T12:49:04;11.25;;;10.27;;
9720;SDS011;4899;42.644;23.366;2023-08-24T12:51:30;11.20;;;10.30;;
9720;SDS011;4899;42.644;23.366;2023-08-24T12:53:55;12.07;;;10.88;;
9720;SDS011;4899;42.644;23.366;2023-08-24T12:56:21;10.90;;;10.02;;
9720;SDS011;4899;42.644;23.366;2023-08-24T12:58:46;12.07;;;10.93;;
9720;SDS011;4899;42.644;23.366;2023-08-24T13:01:12;12.15;;;11.00;;
9720;SDS011;4899;42.644;23.366;2023-08-24T13:03:37;12.20;;;11.15;;
9720;SDS011;4899;42.644;23.366;2023-08-24T13:06:04;13.93;;;10.57;;
9720;SDS011;4899;42.644;23.366;2023-08-24T13:08:30;11.32;;;10.50;;
9720;SDS011;4899;42.644;23.366;2023-08-24T13:10:59;11.90;;;10.90;;
9720;SDS011;4899;42.644;23.366;2023-08-24T13:13:24;11.32;;;10.20;;
9720;SDS011;4899;42.644;23.366;2023-08-24T13:15:50;12.93;;;11.50;;
9720;SDS011;4899;42.644;23.366;2023-08-24T13:18:16;12.52;;;11.45;;
9720;SDS011;4899;42.644;23.366;2023-08-24T13:20:51;12.27;;;10.77;;
9720;SDS011;4899;42.644;23.366;2023-08-24T13:23:17;12.35;;;11.13;;
9720;SDS011;4899;42.644;23.366;2023-08-24T13:25:42;12.32;;;11.15;;
9720;SDS011;4899;42.644;23.366;2023-08-24T13:28:08;12.93;;;11.93;;
9720;SDS011;4899;42.644;23.366;2023-08-24T13:30:33;12.73;;;11.63;;
9720;SDS011;4899;42.644;23.366;2023-08-24T13:32:58;12.30;;;11.30;;
9720;SDS011;4899;42.644;23.366;2023-08-24T13:35:24;12.77;;;11.57;;
9720;SDS011;4899;42.644;23.366;2023-08-24T13:37:49;15.10;;;11.35;;
9720;SDS011;4899;42.644;23.366;2023-08-24T13:40:16;13.23;;;12.05;;
9720;SDS011;4899;42.644;23.366;2023-08-24T13:42:41;12.73;;;11.73;;
9720;SDS011;4899;42.644;23.366;2023-08-24T13:45:07;13.60;;;11.50;;
9720;SDS011;4899;42.644;23.366;2023-08-24T13:47:35;11.95;;;10.98;;
9720;SDS011;4899;42.644;23.366;2023-08-24T13:50:01;14.35;;;11.75;;
9720;SDS011;4899;42.644;23.366;2023-08-24T13:52:27;12.52;;;11.52;;
9720;SDS011;4899;42.644;23.366;2023-08-24T13:54:53;12.18;;;11.02;;
9720;SDS011;4899;42.644;23.366;2023-08-24T13:57:18;11.82;;;10.82;;
9720;SDS011;4899;42.644;23.366;2023-08-24T13:59:43;12.15;;;11.25;;
9720;SDS011;4899;42.644;23.366;2023-08-24T14:02:09;13.30;;;12.15;;
9720;SDS011;4899;42.644;23.366;2023-08-24T14:04:36;11.43;;;10.63;;
9720;SDS011;4899;42.644;23.366;2023-08-24T14:07:02;11.65;;;10.52;;
9720;SDS011;4899;42.644;23.366;2023-08-24T14:09:28;12.05;;;11.02;;
9720;SDS011;4899;42.644;23.366;2023-08-24T14:11:53;12.40;;;11.40;;
9720;SDS011;4899;42.644;23.366;2023-08-24T14:14:18;11.65;;;10.85;;
9720;SDS011;4899;42.644;23.366;2023-08-24T14:16:45;12.77;;;11.43;;
9720;SDS011;4899;42.644;23.366;2023-08-24T14:19:11;12.30;;;11.27;;
9720;SDS011;4899;42.644;23.366;2023-08-24T14:21:36;11.95;;;10.95;;
9720;SDS011;4899;42.644;23.366;2023-08-24T14:24:02;11.73;;;10.82;;
9720;SDS011;4899;42.644;23.366;2023-08-24T14:26:27;12.60;;;10.73;;
9720;SDS011;4899;42.644;23.366;2023-08-24T14:28:54;11.40;;;10.50;;
9720;SDS011;4899;42.644;23.366;2023-08-24T14:31:22;11.73;;;10.82;;
9720;SDS011;4899;42.644;23.366;2023-08-24T14:33:49;12.50;;;11.45;;
9720;SDS011;4899;42.644;23.366;2023-08-24T14:36:15;11.70;;;10.85;;
9720;SDS011;4899;42.644;23.366;2023-08-24T14:38:41;13.02;;;11.85;;
9720;SDS011;4899;42.644;23.366;2023-08-24T14:41:09;13.10;;;11.82;;
9720;SDS011;4899;42.644;23.366;2023-08-24T14:43:36;12.40;;;11.15;;
9720;SDS011;4899;42.644;23.366;2023-08-24T14:46:01;12.68;;;11.27;;
9720;SDS011;4899;42.644;23.366;2023-08-24T14:48:27;13.30;;;11.85;;
9720;SDS011;4899;42.644;23.366;2023-08-24T14:50:55;12.38;;;11.35;;
9720;SDS011;4899;42.644;23.366;2023-08-24T14:53:24;12.82;;;11.52;;
9720;SDS011;4899;42.644;23.366;2023-08-24T14:55:50;12.38;;;11.20;;
9720;SDS011;4899;42.644;23.366;2023-08-24T14:58:15;13.95;;;11.68;;
9720;SDS011;4899;42.644;23.366;2023-08-24T15:00:41;12.68;;;11.40;;